createdAt,value
2019-01-24T00:01:18.675Z,-0.80
2019-01-24T00:03:47.998Z,-0.80
2019-01-24T00:06:17.428Z,-0.80
2019-01-24T00:08:46.924Z,-0.70
2019-01-24T00:11:16.434Z,-0.70
2019-01-24T00:13:45.944Z,-0.70
2019-01-24T00:16:15.452Z,-0.80
2019-01-24T00:18:44.929Z,-0.80
2019-01-24T00:21:14.352Z,-0.80
2019-01-24T00:23:43.782Z,-0.90
2019-01-24T00:26:13.249Z,-0.90
2019-01-24T00:28:42.688Z,-0.90
2019-01-24T00:31:12.033Z,-0.90
2019-01-24T00:33:41.457Z,-0.90
2019-01-24T00:36:10.941Z,-0.90
2019-01-24T00:38:40.363Z,-0.90
2019-01-24T00:41:09.884Z,-0.90
2019-01-24T00:43:39.346Z,-0.90
2019-01-24T00:46:08.942Z,-0.90
2019-01-24T00:48:38.310Z,-0.90
2019-01-24T00:51:07.832Z,-0.80
2019-01-24T00:53:37.356Z,-0.80
2019-01-24T00:56:06.846Z,-0.80
2019-01-24T00:58:36.270Z,-0.80
2019-01-24T01:01:05.909Z,-0.90
2019-01-24T01:03:35.333Z,-0.90
2019-01-24T01:06:05.164Z,-1.00
2019-01-24T01:08:34.583Z,-1.00
2019-01-24T01:11:04.059Z,-1.00
2019-01-24T01:13:33.493Z,-1.00
2019-01-24T01:16:02.967Z,-1.00
2019-01-24T01:18:32.299Z,-1.00
2019-01-24T01:21:01.719Z,-1.00
2019-01-24T01:23:31.192Z,-1.10
2019-01-24T01:26:00.654Z,-1.10
2019-01-24T01:28:30.060Z,-1.10
2019-01-24T01:30:59.512Z,-1.20
2019-01-24T01:33:28.938Z,-1.20
2019-01-24T01:35:58.328Z,-1.30
2019-01-24T01:38:27.923Z,-1.40
2019-01-24T01:40:57.388Z,-1.30
2019-01-24T01:43:26.813Z,-1.30
2019-01-24T01:45:56.284Z,-1.30
2019-01-24T01:48:44.700Z,-1.30
2019-01-24T01:51:14.109Z,-1.30
2019-01-24T01:53:43.543Z,-1.30
2019-01-24T01:56:13.025Z,-1.30
2019-01-24T01:58:42.460Z,-1.30
2019-01-24T02:01:11.844Z,-1.20
2019-01-24T02:03:45.405Z,-1.20
2019-01-24T02:06:14.903Z,-1.20
2019-01-24T02:08:44.309Z,-1.20
2019-01-24T02:11:13.812Z,-1.20
2019-01-24T02:13:43.273Z,-1.20
2019-01-24T02:16:12.666Z,-1.30
2019-01-24T02:18:42.126Z,-1.30
2019-01-24T02:21:11.573Z,-1.30
2019-01-24T02:23:40.973Z,-1.30
2019-01-24T02:26:10.458Z,-1.30
2019-01-24T02:28:39.955Z,-1.30
2019-01-24T02:31:09.335Z,-1.30
2019-01-24T02:33:38.733Z,-1.30
2019-01-24T02:36:08.166Z,-1.30
2019-01-24T02:38:37.595Z,-1.30
2019-01-24T02:41:07.008Z,-1.20
2019-01-24T02:43:36.450Z,-1.20
2019-01-24T02:46:06.034Z,-1.10
2019-01-24T02:48:35.397Z,-1.10
2019-01-24T02:51:04.835Z,-1.10
2019-01-24T02:53:34.213Z,-1.10
2019-01-24T02:56:03.647Z,-1.10
2019-01-24T02:58:33.029Z,-1.10
2019-01-24T03:01:02.593Z,-1.10
2019-01-24T03:03:32.087Z,-1.20
2019-01-24T03:06:01.586Z,-1.20
2019-01-24T03:08:31.067Z,-1.20
2019-01-24T03:11:00.500Z,-1.20
2019-01-24T03:13:29.994Z,-1.20
2019-01-24T03:15:59.416Z,-1.10
2019-01-24T03:18:28.816Z,-1.10
2019-01-24T03:20:58.283Z,-1.20
2019-01-24T03:23:27.709Z,-1.20
2019-01-24T03:25:57.119Z,-1.20
2019-01-24T03:28:26.534Z,-1.30
2019-01-24T03:30:56.016Z,-1.40
2019-01-24T03:33:25.395Z,-1.40
2019-01-24T03:35:54.855Z,-1.40
2019-01-24T03:38:24.397Z,-1.40
2019-01-24T03:40:53.812Z,-1.40
2019-01-24T03:43:23.216Z,-1.40
2019-01-24T03:45:52.687Z,-1.50
2019-01-24T03:48:22.112Z,-1.60
2019-01-24T03:50:51.557Z,-1.60
2019-01-24T03:53:21.037Z,-1.60
2019-01-24T03:55:50.395Z,-1.50
2019-01-24T03:58:19.947Z,-1.50
2019-01-24T04:00:49.483Z,-1.50
2019-01-24T04:03:18.983Z,-1.50
2019-01-24T04:05:48.615Z,-1.60
2019-01-24T04:08:18.154Z,-1.50
2019-01-24T04:10:47.558Z,-1.50
2019-01-24T04:13:36.972Z,-1.50
2019-01-24T04:16:06.450Z,-1.50
2019-01-24T04:18:36.165Z,-1.50
2019-01-24T04:21:05.548Z,-1.40
2019-01-24T04:23:35.042Z,-1.40
2019-01-24T04:26:04.832Z,-1.40
2019-01-24T04:28:34.718Z,-1.40
2019-01-24T04:31:04.225Z,-1.50
2019-01-24T04:33:33.767Z,-1.50
2019-01-24T04:36:03.241Z,-1.50
2019-01-24T04:38:32.716Z,-1.60
2019-01-24T04:41:02.092Z,-1.60
2019-01-24T04:43:31.570Z,-1.70
2019-01-24T04:46:01.083Z,-1.70
2019-01-24T04:48:30.534Z,-1.80
2019-01-24T04:51:00.014Z,-1.80
2019-01-24T04:53:29.566Z,-1.70
2019-01-24T04:55:59.083Z,-1.70
2019-01-24T04:58:28.572Z,-1.70
2019-01-24T05:00:57.916Z,-1.60
2019-01-24T05:03:27.404Z,-1.60
2019-01-24T05:05:56.871Z,-1.60
2019-01-24T05:08:26.267Z,-1.50
2019-01-24T05:10:55.701Z,-1.50
2019-01-24T05:13:25.133Z,-1.40
2019-01-24T05:15:54.575Z,-1.40
2019-01-24T05:18:23.875Z,-1.40
2019-01-24T05:20:53.303Z,-1.40
2019-01-24T05:23:22.734Z,-1.40
2019-01-24T05:25:52.090Z,-1.50
2019-01-24T05:28:21.523Z,-1.50
2019-01-24T05:30:51.078Z,-1.50
2019-01-24T05:33:20.526Z,-1.50
2019-01-24T05:35:50.010Z,-1.50
2019-01-24T05:38:19.474Z,-1.60
2019-01-24T05:40:48.921Z,-1.60
2019-01-24T05:43:18.349Z,-1.60
2019-01-24T05:45:47.848Z,-1.60
2019-01-24T05:48:17.275Z,-1.50
2019-01-24T05:50:46.685Z,-1.50
2019-01-24T05:53:16.112Z,-1.50
2019-01-24T05:55:45.545Z,-1.50
2019-01-24T05:58:14.965Z,-1.60
2019-01-24T06:00:45.989Z,-1.60
2019-01-24T06:03:15.574Z,-1.60
2019-01-24T06:05:44.987Z,-1.60
2019-01-24T06:08:16.194Z,-1.60
2019-01-24T06:10:45.673Z,-1.60
2019-01-24T06:13:15.181Z,-1.60
2019-01-24T06:15:44.618Z,-1.70
2019-01-24T06:18:14.079Z,-1.80
2019-01-24T06:20:43.487Z,-1.80
2019-01-24T06:23:17.069Z,-1.70
2019-01-24T06:25:46.649Z,-1.80
2019-01-24T06:28:16.071Z,-1.80
2019-01-24T06:30:45.483Z,-1.80
2019-01-24T06:33:14.889Z,-1.80
2019-01-24T06:35:48.731Z,-1.80
2019-01-24T06:38:15.401Z,-1.90
2019-01-24T06:40:44.864Z,-2.00
2019-01-24T06:43:14.351Z,-2.10
2019-01-24T06:45:43.888Z,-2.10
2019-01-24T06:48:13.468Z,-2.00
2019-01-24T06:50:42.960Z,-2.00
2019-01-24T06:53:12.437Z,-2.00
2019-01-24T06:55:41.948Z,-1.90
2019-01-24T06:58:11.453Z,-1.90
2019-01-24T07:00:40.879Z,-1.90
2019-01-24T07:03:13.070Z,-1.90
2019-01-24T07:05:42.546Z,-1.90
2019-01-24T07:08:11.906Z,-1.90
2019-01-24T07:10:41.349Z,-1.90
2019-01-24T07:13:10.783Z,-1.80
2019-01-24T07:15:40.244Z,-1.80
2019-01-24T07:18:09.744Z,-1.80
2019-01-24T07:20:39.199Z,-1.80
2019-01-24T07:23:08.656Z,-1.80
2019-01-24T07:25:38.130Z,-1.80
2019-01-24T07:28:07.663Z,-1.80
2019-01-24T07:30:37.074Z,-1.80
2019-01-24T07:33:06.628Z,-1.90
2019-01-24T07:35:36.074Z,-1.80
2019-01-24T07:38:06.347Z,-1.80
2019-01-24T07:40:36.178Z,-1.80
2019-01-24T07:43:05.578Z,-1.80
2019-01-24T07:45:40.444Z,-1.80
2019-01-24T07:48:10.293Z,-1.70
2019-01-24T07:50:39.813Z,-1.70
2019-01-24T07:53:09.712Z,-1.70
2019-01-24T07:55:39.201Z,-1.70
2019-01-24T07:58:09.220Z,-1.80
2019-01-24T08:00:38.745Z,-1.80
2019-01-24T08:03:08.117Z,-1.80
2019-01-24T08:05:37.943Z,-1.80
2019-01-24T08:08:07.449Z,-1.70
2019-01-24T08:10:36.972Z,-1.70
2019-01-24T08:13:06.750Z,-1.70
2019-01-24T08:15:36.206Z,-1.70
2019-01-24T08:18:05.731Z,-1.70
2019-01-24T08:20:35.221Z,-1.80
2019-01-24T08:23:07.047Z,-1.80
2019-01-24T08:25:36.521Z,-1.80
2019-01-24T08:28:05.972Z,-1.80
2019-01-24T08:30:35.348Z,-1.70
2019-01-24T08:33:05.321Z,-1.70
2019-01-24T08:35:34.874Z,-1.70
2019-01-24T08:38:04.525Z,-1.70
2019-01-24T08:40:33.907Z,-1.60
2019-01-24T08:43:03.463Z,-1.50
2019-01-24T08:45:32.843Z,-1.50
2019-01-24T08:48:02.259Z,-1.50
2019-01-24T08:50:31.692Z,-1.60
2019-01-24T08:53:01.042Z,-1.60
2019-01-24T08:55:35.781Z,-1.60
2019-01-24T08:58:06.078Z,-1.70
2019-01-24T09:00:35.468Z,-1.60
2019-01-24T09:03:05.426Z,-1.60
2019-01-24T09:05:34.878Z,-1.60
2019-01-24T09:08:04.590Z,-1.70
2019-01-24T09:10:36.604Z,-1.70
2019-01-24T09:13:07.069Z,-1.70
2019-01-24T09:15:36.997Z,-1.80
2019-01-24T09:18:08.112Z,-1.70
2019-01-24T09:20:37.509Z,-1.60
2019-01-24T09:23:07.501Z,-1.50
2019-01-24T09:25:36.949Z,-1.40
2019-01-24T09:28:06.395Z,-1.40
2019-01-24T09:30:35.797Z,-1.30
2019-01-24T09:33:05.283Z,-1.20
2019-01-24T09:35:34.610Z,-1.20
2019-01-24T09:38:04.071Z,-1.20
2019-01-24T09:40:33.377Z,-1.20
2019-01-24T09:43:02.784Z,-1.20
2019-01-24T09:45:32.174Z,-1.10
2019-01-24T09:48:02.520Z,-1.10
2019-01-24T09:50:33.044Z,-1.10
2019-01-24T09:53:02.474Z,-1.10
2019-01-24T09:55:31.976Z,-1.10
2019-01-24T09:58:01.427Z,-1.20
2019-01-24T10:00:32.940Z,-1.10
2019-01-24T10:03:02.544Z,-1.10
2019-01-24T10:05:31.991Z,-1.00
2019-01-24T10:08:01.489Z,-0.90
2019-01-24T10:10:30.871Z,-1.00
2019-01-24T10:13:00.293Z,-0.90
2019-01-24T10:15:29.902Z,-0.90
2019-01-24T10:17:59.293Z,-0.90
2019-01-24T10:20:29.129Z,-0.80
2019-01-24T10:22:58.465Z,-0.80
2019-01-24T10:25:30.445Z,-0.70
2019-01-24T10:27:59.774Z,-0.70
2019-01-24T10:30:29.280Z,-0.70
2019-01-24T10:32:58.775Z,-0.70
2019-01-24T10:35:28.369Z,-0.70
2019-01-24T10:37:57.811Z,-0.70
2019-01-24T10:40:29.163Z,-0.60
2019-01-24T10:42:58.576Z,-0.70
2019-01-24T10:45:28.340Z,-0.80
2019-01-24T10:48:16.819Z,-0.70
2019-01-24T10:50:46.235Z,-0.70
2019-01-24T10:53:15.779Z,-0.60
2019-01-24T10:55:45.289Z,-0.40
2019-01-24T10:58:14.684Z,-0.30
2019-01-24T11:00:44.565Z,-0.30
2019-01-24T11:03:18.257Z,-0.30
2019-01-24T11:05:47.796Z,-0.30
2019-01-24T11:08:17.424Z,-0.30
2019-01-24T11:10:46.760Z,-0.30
2019-01-24T11:13:16.200Z,-0.30
2019-01-24T11:15:45.618Z,-0.30
2019-01-24T11:18:14.974Z,-0.30
2019-01-24T11:20:44.438Z,-0.10
2019-01-24T11:23:13.839Z,-0.20
2019-01-24T11:25:43.246Z,-0.20
2019-01-24T11:28:12.634Z,-0.30
2019-01-24T11:30:41.983Z,-0.30
2019-01-24T11:33:11.359Z,-0.10
2019-01-24T11:35:40.842Z,-0.10
2019-01-24T11:38:10.413Z,-0.30
2019-01-24T11:40:39.811Z,-0.30
2019-01-24T11:43:09.295Z,-0.20
2019-01-24T11:45:40.836Z,-0.20
2019-01-24T11:48:10.257Z,-0.10
2019-01-24T11:50:39.668Z,-0.10
2019-01-24T11:53:09.163Z,-0.10
2019-01-24T11:55:38.562Z,-0.30
2019-01-24T11:58:08.666Z,-0.20
2019-01-24T12:00:58.360Z,-0.20
2019-01-24T12:03:27.796Z,-0.10
2019-01-24T12:05:57.364Z,-0.10
2019-01-24T12:08:26.798Z,-0.10
2019-01-24T12:10:56.276Z,-0.10
2019-01-24T12:13:26.584Z,-0.10
2019-01-24T12:15:55.993Z,-0.10
2019-01-24T12:18:25.411Z,0.00
2019-01-24T12:20:54.783Z,0.10
2019-01-24T12:23:24.210Z,0.20
2019-01-24T12:25:53.679Z,0.10
2019-01-24T12:28:23.109Z,0.00
2019-01-24T12:30:52.509Z,0.00
2019-01-24T12:33:21.904Z,0.00
2019-01-24T12:35:51.320Z,0.00
2019-01-24T12:38:20.770Z,0.00
2019-01-24T12:40:50.147Z,0.00
2019-01-24T12:43:19.618Z,0.10
2019-01-24T12:45:49.112Z,0.10
2019-01-24T12:48:18.532Z,0.10
2019-01-24T12:50:48.007Z,0.20
2019-01-24T12:53:17.489Z,0.30
2019-01-24T12:55:46.930Z,0.30
2019-01-24T12:58:16.330Z,0.30
2019-01-24T13:00:45.695Z,0.30
2019-01-24T13:03:15.100Z,0.10
2019-01-24T13:05:44.569Z,0.10
2019-01-24T13:08:14.001Z,0.10
2019-01-24T13:10:43.453Z,0.10
2019-01-24T13:16:13.050Z,0.10
2019-01-24T13:18:42.566Z,0.10
2019-01-24T13:21:11.990Z,0.20
2019-01-24T13:23:41.364Z,0.20
2019-01-24T13:26:10.772Z,0.30
2019-01-24T13:28:40.184Z,0.20
2019-01-24T13:31:21.518Z,0.20
2019-01-24T13:33:50.951Z,0.20
2019-01-24T13:36:20.298Z,0.20
2019-01-24T13:38:49.702Z,-0.10
2019-01-24T13:41:19.165Z,-0.10
2019-01-24T13:43:48.580Z,-0.10
2019-01-24T13:46:18.021Z,-0.20
2019-01-24T13:48:47.487Z,-0.30
2019-01-24T13:51:17.019Z,-0.30
2019-01-24T13:53:46.421Z,-0.30
2019-01-24T13:56:15.893Z,-0.40
2019-01-24T13:58:45.318Z,-0.50
2019-01-24T14:01:14.746Z,-0.60
2019-01-24T14:03:54.205Z,-0.60
2019-01-24T14:06:23.630Z,-0.50
2019-01-24T14:08:53.051Z,-0.40
2019-01-24T14:11:22.477Z,-0.40
2019-01-24T14:13:51.860Z,-0.30
2019-01-24T14:16:21.325Z,-0.20
2019-01-24T14:18:50.692Z,-0.20
2019-01-24T14:21:20.027Z,-0.10
2019-01-24T14:23:49.451Z,-0.20
2019-01-24T14:26:18.796Z,-0.10
2019-01-24T14:28:48.245Z,-0.10
2019-01-24T14:31:17.594Z,-0.20
2019-01-24T14:33:46.967Z,-0.20
2019-01-24T14:36:16.471Z,-0.10
2019-01-24T14:38:45.816Z,-0.10
2019-01-24T14:41:15.229Z,0.00
2019-01-24T14:43:44.655Z,0.00
2019-01-24T14:46:14.097Z,0.00
2019-01-24T14:48:43.518Z,-0.10
2019-01-24T14:51:13.060Z,-0.20
2019-01-24T14:53:42.443Z,-0.30
2019-01-24T14:56:11.874Z,-0.40
2019-01-24T14:58:41.214Z,-0.60
2019-01-24T15:01:13.528Z,-0.70
2019-01-24T15:03:42.960Z,-0.70
2019-01-24T15:06:12.383Z,-0.80
2019-01-24T15:08:41.898Z,-0.80
2019-01-24T15:11:11.309Z,-0.90
2019-01-24T15:13:40.768Z,-0.90
2019-01-24T15:16:10.181Z,-0.90
2019-01-24T15:18:39.580Z,-0.90
2019-01-24T15:21:09.009Z,-1.00
2019-01-24T15:23:38.459Z,-1.10
2019-01-24T15:26:07.839Z,-1.10
2019-01-24T15:28:39.989Z,-1.10
2019-01-24T15:31:09.329Z,-1.00
2019-01-24T15:33:38.741Z,-1.00
2019-01-24T15:36:08.141Z,-1.10
2019-01-24T15:38:37.442Z,-1.00
2019-01-24T15:41:06.852Z,-1.00
2019-01-24T15:43:36.312Z,-1.00
2019-01-24T15:46:06.123Z,-1.00
2019-01-24T15:48:42.237Z,-1.00
2019-01-24T15:51:06.742Z,-1.00
2019-01-24T15:53:36.122Z,-1.00
2019-01-24T15:56:06.075Z,-1.00
2019-01-24T15:58:35.482Z,-1.00
2019-01-24T16:01:05.506Z,-1.00
2019-01-24T16:03:38.183Z,-1.00
2019-01-24T16:06:07.614Z,-0.90
2019-01-24T16:08:37.137Z,-0.90
2019-01-24T16:11:06.577Z,-0.90
2019-01-24T16:13:35.962Z,-0.90
2019-01-24T16:16:06.132Z,-0.90
2019-01-24T16:18:35.519Z,-0.90
2019-01-24T16:21:05.109Z,-0.90
2019-01-24T16:23:34.520Z,-0.90
2019-01-24T16:26:03.989Z,-0.80
2019-01-24T16:28:33.418Z,-0.80
2019-01-24T16:31:02.996Z,-0.80
2019-01-24T16:33:32.460Z,-0.70
2019-01-24T16:36:02.065Z,-0.80
2019-01-24T16:38:31.443Z,-0.80
2019-01-24T16:41:00.897Z,-0.80
2019-01-24T16:43:30.339Z,-0.80
2019-01-24T16:45:59.751Z,-0.80
2019-01-24T16:48:29.259Z,-0.80
2019-01-24T16:50:58.690Z,-0.80
2019-01-24T16:53:28.045Z,-0.90
2019-01-24T16:55:57.505Z,-0.90
2019-01-24T16:58:26.948Z,-0.90
2019-01-24T17:01:19.748Z,-0.90
2019-01-24T17:03:49.329Z,-0.90
2019-01-24T17:06:18.854Z,-0.90
2019-01-24T17:08:48.866Z,-0.90
2019-01-24T17:11:18.283Z,-0.80
2019-01-24T17:13:47.725Z,-0.80
2019-01-24T17:16:17.360Z,-0.90
2019-01-24T17:18:46.831Z,-0.80
2019-01-24T17:21:16.252Z,-0.80
2019-01-24T17:23:45.716Z,-0.90
2019-01-24T17:26:15.214Z,-0.90
2019-01-24T17:28:44.729Z,-0.90
2019-01-24T17:31:14.213Z,-0.90
2019-01-24T17:33:43.648Z,-0.90
2019-01-24T17:36:13.067Z,-0.90
2019-01-24T17:38:42.523Z,-0.90
2019-01-24T17:41:12.018Z,-1.00
2019-01-24T17:43:41.360Z,-1.00
2019-01-24T17:46:10.776Z,-1.00
2019-01-24T17:48:40.179Z,-1.00
2019-01-24T17:51:09.542Z,-1.00
2019-01-24T17:53:38.983Z,-1.00
2019-01-24T17:56:08.390Z,-1.00
2019-01-24T17:58:37.788Z,-1.00
2019-01-24T18:01:07.324Z,-1.00
2019-01-24T18:03:36.799Z,-1.00
2019-01-24T18:06:06.433Z,-1.00
2019-01-24T18:08:35.844Z,-1.00
2019-01-24T18:11:05.438Z,-1.00
2019-01-24T18:13:34.916Z,-1.00
2019-01-24T18:16:05.035Z,-1.00
2019-01-24T18:18:34.502Z,-1.00
2019-01-24T18:21:04.358Z,-1.00
2019-01-24T18:23:34.078Z,-1.00
2019-01-24T18:26:03.534Z,-1.00
2019-01-24T18:28:32.969Z,-1.10
2019-01-24T18:31:02.517Z,-1.10
2019-01-24T18:33:31.978Z,-1.10
2019-01-24T18:36:01.502Z,-1.10
2019-01-24T18:38:30.940Z,-1.10
2019-01-24T18:41:00.481Z,-1.00
2019-01-24T18:43:29.997Z,-1.00
2019-01-24T18:46:01.408Z,-1.00
2019-01-24T18:48:31.020Z,-1.00
2019-01-24T18:51:00.534Z,-1.00
2019-01-24T18:53:30.075Z,-1.00
2019-01-24T18:55:59.581Z,-1.00
2019-01-24T18:58:29.132Z,-0.90
2019-01-24T19:00:58.575Z,-0.90
2019-01-24T19:03:28.137Z,-1.00
2019-01-24T19:05:57.572Z,-1.00
2019-01-24T19:08:27.053Z,-0.90
2019-01-24T19:10:56.482Z,-0.90
2019-01-24T19:13:25.911Z,-0.90
2019-01-24T19:15:55.379Z,-0.90
2019-01-24T19:18:24.878Z,-0.90
2019-01-24T19:20:54.288Z,-0.90
2019-01-24T19:23:23.872Z,-0.90
2019-01-24T19:25:55.096Z,-0.90
2019-01-24T19:28:24.585Z,-1.00
2019-01-24T19:30:54.419Z,-1.00
2019-01-24T19:33:23.830Z,-0.90
2019-01-24T19:36:00.093Z,-0.90
2019-01-24T19:38:24.404Z,-0.90
2019-01-24T19:40:53.913Z,-0.90
2019-01-24T19:43:23.356Z,-1.00
2019-01-24T19:45:52.772Z,-1.00
2019-01-24T19:48:22.236Z,-1.00
2019-01-24T19:53:47.493Z,-1.00
2019-01-24T19:56:17.038Z,-1.00
2019-01-24T19:58:46.547Z,-1.00
2019-01-24T20:01:19.106Z,-1.00
2019-01-24T20:03:48.538Z,-0.90
2019-01-24T20:06:18.258Z,-0.90
2019-01-24T20:08:47.693Z,-1.00
2019-01-24T20:11:17.223Z,-1.00
2019-01-24T20:13:46.759Z,-1.00
2019-01-24T20:16:16.268Z,-1.00
2019-01-24T20:18:45.728Z,-1.10
2019-01-24T20:21:15.312Z,-1.10
2019-01-24T20:23:44.750Z,-1.10
2019-01-24T20:26:14.262Z,-1.00
2019-01-24T20:28:43.756Z,-1.00
2019-01-24T20:31:13.237Z,-1.00
2019-01-24T20:33:42.818Z,-1.00
2019-01-24T20:36:12.400Z,-0.90
2019-01-24T20:38:41.872Z,-0.90
2019-01-24T20:41:11.487Z,-0.90
2019-01-24T20:43:41.029Z,-0.90
2019-01-24T20:46:10.575Z,-1.00
2019-01-24T20:48:40.119Z,-1.00
2019-01-24T20:51:09.838Z,-1.00
2019-01-24T20:53:39.416Z,-1.00
2019-01-24T20:56:09.002Z,-1.00
2019-01-24T20:58:38.563Z,-0.90
2019-01-24T21:01:08.159Z,-0.90
2019-01-24T21:03:37.645Z,-1.00
2019-01-24T21:06:07.218Z,-1.00
2019-01-24T21:08:36.782Z,-1.00
2019-01-24T21:11:06.246Z,-1.00
2019-01-24T21:13:35.716Z,-1.00
2019-01-24T21:16:05.290Z,-1.10
2019-01-24T21:18:34.822Z,-1.10
2019-01-24T21:21:07.359Z,-1.00
2019-01-24T21:23:36.883Z,-1.00
2019-01-24T21:26:06.363Z,-1.00
2019-01-24T21:28:35.973Z,-1.00
2019-01-24T21:31:05.639Z,-1.00
2019-01-24T21:33:35.128Z,-1.10
2019-01-24T21:36:04.569Z,-1.10
2019-01-24T21:38:34.049Z,-1.10
2019-01-24T21:41:03.513Z,-1.10
2019-01-24T21:43:33.013Z,-1.00
2019-01-24T21:46:02.479Z,-1.00
2019-01-24T21:48:31.969Z,-1.00
2019-01-24T21:51:01.406Z,-1.00
2019-01-24T21:53:30.888Z,-1.00
2019-01-24T21:56:00.435Z,-1.00
2019-01-24T21:58:29.876Z,-0.90
2019-01-24T22:00:59.448Z,-0.90
2019-01-24T22:03:28.898Z,-0.90
2019-01-24T22:05:58.394Z,-1.00
2019-01-24T22:08:27.845Z,-0.90
2019-01-24T22:10:57.342Z,-1.00
2019-01-24T22:13:26.858Z,-1.00
2019-01-24T22:15:56.338Z,-1.00
2019-01-24T22:18:25.831Z,-1.00
2019-01-24T22:20:55.729Z,-0.90
2019-01-24T22:23:25.373Z,-0.90
2019-01-24T22:25:54.833Z,-1.00
2019-01-24T22:28:24.336Z,-1.00
2019-01-24T22:30:55.968Z,-1.00
2019-01-24T22:33:25.419Z,-1.00
2019-01-24T22:35:54.855Z,-1.00
2019-01-24T22:38:24.350Z,-0.90
2019-01-24T22:40:53.792Z,-0.90
2019-01-24T22:43:23.332Z,-0.90
2019-01-24T22:45:52.824Z,-0.90
2019-01-24T22:48:22.332Z,-0.90
2019-01-24T22:50:52.863Z,-0.90
2019-01-24T22:53:22.404Z,-0.90
2019-01-24T22:55:51.931Z,-0.90
2019-01-24T22:58:21.372Z,-0.90
2019-01-24T23:01:43.896Z,-0.90
2019-01-24T23:04:16.103Z,-1.00
2019-01-24T23:06:45.477Z,-1.00
2019-01-24T23:09:15.016Z,-1.00
2019-01-24T23:11:44.479Z,-1.00
2019-01-24T23:14:13.945Z,-1.00
2019-01-24T23:16:43.486Z,-1.00
2019-01-24T23:19:12.891Z,-1.00
2019-01-24T23:21:42.343Z,-1.00
2019-01-24T23:24:11.911Z,-1.00
2019-01-24T23:26:41.248Z,-1.00
2019-01-24T23:29:10.732Z,-1.00
2019-01-24T23:31:40.208Z,-1.00
2019-01-24T23:34:09.634Z,-0.90
2019-01-24T23:36:39.114Z,-0.90
2019-01-24T23:39:10.576Z,-1.00
2019-01-24T23:41:39.966Z,-1.00
2019-01-24T23:44:09.434Z,-1.00
2019-01-24T23:46:38.890Z,-1.00
2019-01-24T23:49:08.367Z,-1.00
2019-01-24T23:51:37.872Z,-1.00
2019-01-24T23:54:07.355Z,-1.00
2019-01-24T23:56:36.901Z,-1.10
2019-01-24T23:59:06.287Z,-1.00
